createdAt,value
2023-01-29T00:01:48.204Z,16.80
2023-01-29T00:04:49.797Z,16.00
2023-01-29T00:07:51.442Z,16.17
2023-01-29T00:10:53.152Z,15.87
2023-01-29T00:13:54.813Z,14.73
2023-01-29T00:16:56.479Z,16.47
2023-01-29T00:19:58.175Z,16.77
2023-01-29T00:22:59.846Z,15.10
2023-01-29T00:26:01.530Z,14.27
2023-01-29T00:29:03.107Z,14.30
2023-01-29T00:32:05.281Z,13.27
2023-01-29T00:35:07.403Z,13.07
2023-01-29T00:38:09.159Z,14.10
2023-01-29T00:41:30.377Z,13.73
2023-01-29T00:44:50.597Z,13.30
2023-01-29T00:47:52.227Z,13.30
2023-01-29T00:50:53.773Z,13.50
2023-01-29T00:53:58.328Z,14.23
2023-01-29T00:57:00.409Z,13.03
2023-01-29T01:00:03.609Z,14.27
2023-01-29T01:03:08.333Z,14.00
2023-01-29T01:06:10.646Z,15.03
2023-01-29T01:09:30.915Z,12.23
2023-01-29T01:12:32.698Z,14.13
2023-01-29T01:15:36.343Z,14.40
2023-01-29T01:18:38.220Z,13.87
2023-01-29T01:21:39.886Z,14.63
2023-01-29T01:24:41.600Z,14.23
2023-01-29T01:27:43.227Z,15.23
2023-01-29T01:30:45.113Z,14.77
2023-01-29T01:33:46.677Z,14.30
2023-01-29T01:36:48.603Z,15.60
2023-01-29T01:39:50.564Z,15.37
2023-01-29T01:42:56.437Z,13.90
2023-01-29T01:45:58.111Z,14.93
2023-01-29T01:49:21.690Z,13.73
2023-01-29T01:52:23.657Z,12.33
2023-01-29T01:55:28.126Z,14.03
2023-01-29T01:59:02.078Z,16.00
2023-01-29T02:02:22.489Z,14.43
2023-01-29T02:05:43.286Z,15.20
2023-01-29T02:09:08.235Z,16.73
2023-01-29T02:12:12.315Z,16.83
2023-01-29T02:15:13.930Z,13.97
2023-01-29T02:18:17.883Z,13.80
2023-01-29T02:21:25.164Z,14.60
2023-01-29T02:24:41.009Z,13.83
2023-01-29T02:27:48.747Z,13.43
2023-01-29T02:30:59.446Z,13.97
2023-01-29T02:34:07.073Z,13.63
2023-01-29T02:37:11.172Z,12.70
2023-01-29T02:40:18.671Z,11.77
2023-01-29T02:43:26.533Z,12.87
2023-01-29T02:46:31.247Z,13.03
2023-01-29T02:49:39.307Z,11.73
2023-01-29T02:52:54.311Z,12.13
2023-01-29T02:56:02.117Z,11.53
2023-01-29T02:59:10.184Z,12.93
2023-01-29T03:02:16.518Z,11.63
2023-01-29T03:05:21.863Z,11.10
2023-01-29T03:08:36.963Z,10.70
2023-01-29T03:11:41.541Z,12.23
2023-01-29T03:15:06.406Z,11.40
2023-01-29T03:18:17.731Z,9.33
2023-01-29T03:21:59.169Z,9.53
2023-01-29T03:25:21.708Z,9.73
2023-01-29T03:28:42.660Z,21.40
2023-01-29T03:32:03.532Z,11.33
2023-01-29T03:35:06.446Z,11.27
2023-01-29T03:38:12.662Z,11.03
2023-01-29T03:41:17.404Z,10.90
2023-01-29T03:44:26.506Z,8.93
2023-01-29T03:47:37.304Z,8.67
2023-01-29T03:50:41.968Z,27.13
2023-01-29T03:53:46.610Z,10.17
2023-01-29T03:56:58.140Z,10.87
2023-01-29T04:00:00.041Z,11.03
2023-01-29T04:03:23.196Z,10.47
2023-01-29T04:06:27.497Z,8.87
2023-01-29T04:10:12.471Z,9.90
2023-01-29T04:13:15.805Z,12.20
2023-01-29T04:16:32.164Z,12.00
2023-01-29T04:19:50.195Z,9.43
2023-01-29T04:22:52.413Z,9.33
2023-01-29T04:26:06.909Z,7.23
2023-01-29T04:29:30.000Z,8.57
2023-01-29T04:32:38.872Z,8.57
2023-01-29T04:36:00.233Z,8.93
2023-01-29T04:39:15.948Z,8.00
2023-01-29T04:42:26.994Z,8.43
2023-01-29T04:45:43.995Z,8.13
2023-01-29T04:49:05.352Z,7.47
2023-01-29T04:52:10.392Z,7.87
2023-01-29T04:55:15.039Z,7.27
2023-01-29T04:58:36.155Z,8.83
2023-01-29T05:01:38.696Z,9.93
2023-01-29T05:04:41.526Z,9.10
2023-01-29T05:07:43.500Z,8.33
2023-01-29T05:10:46.110Z,7.50
2023-01-29T05:13:48.619Z,9.47
2023-01-29T05:16:52.474Z,12.33
2023-01-29T05:19:55.514Z,9.60
2023-01-29T05:22:57.127Z,8.33
2023-01-29T05:25:58.827Z,7.97
2023-01-29T05:29:00.469Z,7.77
2023-01-29T05:32:02.095Z,7.20
2023-01-29T05:35:03.860Z,8.27
2023-01-29T05:38:05.485Z,8.47
2023-01-29T05:41:07.201Z,9.63
2023-01-29T05:44:10.089Z,8.40
2023-01-29T05:47:11.764Z,9.87
2023-01-29T05:50:14.279Z,13.70
2023-01-29T05:53:16.047Z,17.40
2023-01-29T05:56:17.714Z,11.13
2023-01-29T05:59:19.316Z,12.90
2023-01-29T06:02:21.351Z,11.10
2023-01-29T06:05:22.995Z,12.53
2023-01-29T06:08:24.616Z,10.57
2023-01-29T06:11:26.399Z,13.30
2023-01-29T06:14:28.207Z,9.03
2023-01-29T06:17:29.788Z,11.27
2023-01-29T06:20:31.413Z,8.80
2023-01-29T06:23:33.089Z,11.23
2023-01-29T06:26:34.986Z,11.47
2023-01-29T06:29:36.720Z,10.23
2023-01-29T06:32:41.477Z,20.13
2023-01-29T06:35:43.190Z,17.47
2023-01-29T06:38:44.952Z,14.07
2023-01-29T06:41:48.986Z,10.73
2023-01-29T06:44:50.582Z,11.07
2023-01-29T06:47:52.722Z,13.50
2023-01-29T06:50:55.236Z,15.27
2023-01-29T06:53:56.957Z,16.73
2023-01-29T06:56:59.146Z,14.40
2023-01-29T07:00:00.896Z,14.97
2023-01-29T07:03:02.753Z,15.43
2023-01-29T07:06:04.807Z,15.87
2023-01-29T07:09:06.434Z,21.43
2023-01-29T07:12:08.829Z,16.63
2023-01-29T07:15:15.685Z,19.17
2023-01-29T07:18:17.434Z,17.60
2023-01-29T07:21:19.096Z,20.50
2023-01-29T07:24:23.332Z,16.90
2023-01-29T07:27:32.476Z,18.07
2023-01-29T07:30:37.570Z,13.53
2023-01-29T07:33:39.165Z,14.27
2023-01-29T07:36:40.794Z,13.40
2023-01-29T07:39:42.465Z,15.23
2023-01-29T07:42:44.325Z,12.77
2023-01-29T07:45:46.225Z,10.07
2023-01-29T07:48:48.111Z,12.73
2023-01-29T07:51:49.783Z,11.03
2023-01-29T07:54:51.441Z,12.30
2023-01-29T07:57:56.928Z,15.80
2023-01-29T08:00:59.364Z,11.60
2023-01-29T08:04:01.261Z,10.83
2023-01-29T08:07:04.760Z,12.97
2023-01-29T08:10:06.746Z,15.47
2023-01-29T08:13:08.608Z,17.00
2023-01-29T08:16:10.393Z,15.63
2023-01-29T08:19:12.094Z,16.77
2023-01-29T08:22:15.447Z,18.03
2023-01-29T08:25:17.496Z,13.80
2023-01-29T08:28:19.404Z,11.00
2023-01-29T08:31:21.164Z,18.07
2023-01-29T08:34:23.056Z,19.60
2023-01-29T08:37:28.717Z,20.20
2023-01-29T08:40:32.034Z,20.23
2023-01-29T08:43:35.368Z,19.53
2023-01-29T08:46:37.637Z,22.47
2023-01-29T08:49:39.398Z,22.60
2023-01-29T08:52:41.143Z,20.47
2023-01-29T08:55:42.765Z,39.50
2023-01-29T08:58:44.461Z,19.77
2023-01-29T09:01:46.069Z,17.13
2023-01-29T09:04:47.728Z,18.67
2023-01-29T09:07:49.376Z,18.80
2023-01-29T09:10:51.585Z,21.07
2023-01-29T09:13:54.372Z,20.83
2023-01-29T09:16:58.144Z,18.97
2023-01-29T09:19:59.765Z,22.43
2023-01-29T09:23:05.128Z,23.47
2023-01-29T09:26:07.781Z,16.27
2023-01-29T09:29:10.758Z,17.17
2023-01-29T09:32:12.587Z,17.03
2023-01-29T09:35:14.516Z,14.67
2023-01-29T09:38:16.301Z,14.63
2023-01-29T09:41:29.845Z,21.73
2023-01-29T09:44:31.450Z,25.90
2023-01-29T09:47:34.884Z,26.80
2023-01-29T09:50:38.525Z,28.40
2023-01-29T09:53:42.857Z,27.33
2023-01-29T09:56:45.793Z,22.43
2023-01-29T09:59:47.484Z,20.07
2023-01-29T10:06:33.050Z,26.83
2023-01-29T10:09:53.594Z,67.57
2023-01-29T10:12:58.091Z,42.97
2023-01-29T10:16:08.638Z,37.00
2023-01-29T10:19:28.716Z,33.93
2023-01-29T10:22:36.892Z,24.37
2023-01-29T10:25:40.731Z,20.37
2023-01-29T10:28:46.185Z,47.20
2023-01-29T10:31:59.625Z,41.27
2023-01-29T10:35:06.489Z,36.83
2023-01-29T10:38:18.624Z,30.60
2023-01-29T10:41:39.075Z,30.57
2023-01-29T10:44:43.790Z,22.73
2023-01-29T10:47:45.479Z,24.53
2023-01-29T10:51:16.635Z,25.77
2023-01-29T10:54:33.533Z,24.67
2023-01-29T10:57:42.273Z,20.47
2023-01-29T11:00:43.990Z,18.90
2023-01-29T11:03:45.772Z,36.67
2023-01-29T11:06:49.281Z,22.80
2023-01-29T11:09:50.877Z,23.60
2023-01-29T11:12:53.203Z,27.33
2023-01-29T11:15:54.873Z,21.90
2023-01-29T11:19:01.255Z,25.53
2023-01-29T11:22:04.442Z,28.00
2023-01-29T11:25:19.559Z,22.27
2023-01-29T11:28:37.816Z,25.50
2023-01-29T11:31:40.052Z,25.53
2023-01-29T11:35:00.130Z,23.70
2023-01-29T11:38:09.676Z,25.50
2023-01-29T11:41:18.131Z,25.33
2023-01-29T11:44:19.733Z,25.97
2023-01-29T11:47:25.907Z,25.57
2023-01-29T11:50:30.765Z,28.67
2023-01-29T11:53:46.093Z,29.50
2023-01-29T11:56:48.283Z,28.73
2023-01-29T11:59:50.968Z,25.47
2023-01-29T12:03:11.469Z,28.30
2023-01-29T12:06:31.566Z,25.27
2023-01-29T12:09:33.317Z,24.00
2023-01-29T12:12:57.892Z,23.80
2023-01-29T12:16:11.833Z,20.20
2023-01-29T12:19:19.589Z,30.83
2023-01-29T12:22:23.957Z,29.93
2023-01-29T12:25:49.469Z,40.23
2023-01-29T12:29:10.983Z,20.60
2023-01-29T12:32:12.717Z,41.73
2023-01-29T12:35:20.478Z,28.30
2023-01-29T12:38:23.142Z,28.00
2023-01-29T12:41:45.141Z,22.83
2023-01-29T12:44:50.679Z,26.37
2023-01-29T12:47:55.199Z,23.13
2023-01-29T12:50:59.484Z,23.60
2023-01-29T12:54:13.072Z,33.33
2023-01-29T12:57:26.158Z,35.77
2023-01-29T13:00:30.798Z,34.10
2023-01-29T13:03:44.567Z,44.07
2023-01-29T13:06:49.692Z,38.33
2023-01-29T13:09:53.352Z,34.67
2023-01-29T13:13:01.018Z,52.63
2023-01-29T13:16:05.492Z,24.60
2023-01-29T13:19:15.069Z,25.30
2023-01-29T13:22:26.807Z,26.17
2023-01-29T13:25:28.490Z,23.43
2023-01-29T13:28:30.707Z,27.67
2023-01-29T13:31:36.869Z,29.07
2023-01-29T13:34:45.735Z,47.30
2023-01-29T13:37:48.974Z,34.07
2023-01-29T13:40:51.199Z,33.30
2023-01-29T13:43:52.992Z,33.40
2023-01-29T13:47:01.834Z,22.67
2023-01-29T13:50:08.793Z,25.73
2023-01-29T13:53:18.353Z,34.83
2023-01-29T13:56:35.365Z,24.97
2023-01-29T13:59:55.243Z,25.00
2023-01-29T14:02:56.893Z,23.30
2023-01-29T14:05:59.275Z,23.67
2023-01-29T14:09:01.699Z,27.57
2023-01-29T14:12:23.570Z,24.50
2023-01-29T14:15:26.782Z,29.27
2023-01-29T14:18:29.805Z,31.00
2023-01-29T14:21:33.281Z,27.87
2023-01-29T14:24:35.042Z,24.13
2023-01-29T14:27:37.090Z,32.83
2023-01-29T14:30:41.126Z,35.23
2023-01-29T14:33:43.622Z,22.10
2023-01-29T14:36:46.918Z,25.73
2023-01-29T14:39:50.513Z,28.57
2023-01-29T14:42:56.423Z,35.87
2023-01-29T14:46:18.009Z,27.93
2023-01-29T14:49:38.480Z,28.73
2023-01-29T14:52:42.267Z,30.13
2023-01-29T14:55:45.374Z,28.60
2023-01-29T14:58:48.363Z,32.77
2023-01-29T15:01:54.948Z,28.57
2023-01-29T15:04:58.782Z,38.70
2023-01-29T15:08:06.411Z,36.27
2023-01-29T15:11:36.429Z,34.70
2023-01-29T15:14:43.411Z,25.20
2023-01-29T15:17:48.118Z,27.47
2023-01-29T15:21:03.440Z,25.83
2023-01-29T15:24:07.232Z,26.17
2023-01-29T15:27:17.375Z,26.53
2023-01-29T15:30:22.241Z,23.63
2023-01-29T15:33:23.942Z,22.07
2023-01-29T15:36:26.795Z,23.97
2023-01-29T15:39:29.647Z,24.63
2023-01-29T15:42:41.976Z,24.90
2023-01-29T15:45:43.634Z,25.33
2023-01-29T15:48:45.686Z,27.07
2023-01-29T15:51:48.888Z,41.57
2023-01-29T15:54:51.412Z,48.57
2023-01-29T15:57:53.671Z,51.83
2023-01-29T16:00:56.813Z,53.03
2023-01-29T16:04:02.441Z,47.80
2023-01-29T16:07:04.335Z,49.50
2023-01-29T16:10:06.682Z,61.30
2023-01-29T16:13:16.546Z,65.27
2023-01-29T16:16:24.858Z,43.80
2023-01-29T16:19:28.089Z,45.40
2023-01-29T16:22:32.794Z,51.40
2023-01-29T16:25:40.996Z,40.60
2023-01-29T16:28:43.543Z,38.17
2023-01-29T16:31:46.069Z,43.70
2023-01-29T16:34:50.055Z,57.37
2023-01-29T16:38:03.391Z,51.20
2023-01-29T16:41:04.990Z,48.77
2023-01-29T16:44:15.774Z,51.00
2023-01-29T16:47:28.370Z,50.00
2023-01-29T16:50:40.547Z,40.47
2023-01-29T16:54:01.427Z,71.83
2023-01-29T16:57:03.416Z,76.03
2023-01-29T17:00:07.637Z,60.53
2023-01-29T17:03:11.142Z,69.10
2023-01-29T17:06:13.829Z,58.37
2023-01-29T17:09:27.399Z,51.53
2023-01-29T17:12:30.201Z,54.17
2023-01-29T17:15:31.911Z,49.23
2023-01-29T17:18:33.617Z,48.20
2023-01-29T17:21:35.472Z,51.07
2023-01-29T17:24:37.098Z,51.53
2023-01-29T17:27:40.878Z,47.60
2023-01-29T17:30:46.398Z,73.77
2023-01-29T17:33:52.335Z,47.77
2023-01-29T17:36:54.089Z,60.93
2023-01-29T17:39:56.354Z,48.63
2023-01-29T17:42:58.032Z,61.93
2023-01-29T17:46:00.027Z,65.57
2023-01-29T17:49:02.919Z,75.90
2023-01-29T17:52:04.605Z,76.43
2023-01-29T17:55:06.521Z,73.37
2023-01-29T17:58:16.286Z,69.33
2023-01-29T18:01:17.911Z,69.80
2023-01-29T18:04:19.718Z,71.17
2023-01-29T18:07:21.506Z,57.27
2023-01-29T18:10:23.209Z,68.70
2023-01-29T18:13:25.464Z,69.43
2023-01-29T18:16:27.795Z,68.10
2023-01-29T18:19:31.137Z,61.60
2023-01-29T18:22:33.007Z,68.80
2023-01-29T18:25:34.877Z,70.43
2023-01-29T18:28:36.596Z,72.63
2023-01-29T18:31:38.341Z,70.07
2023-01-29T18:34:41.376Z,67.80
2023-01-29T18:37:43.233Z,66.03
2023-01-29T18:40:44.868Z,99.53
2023-01-29T18:43:46.586Z,73.47
2023-01-29T18:46:48.284Z,65.87
2023-01-29T18:49:51.895Z,68.67
2023-01-29T18:52:53.987Z,63.83
2023-01-29T18:55:59.610Z,64.53
2023-01-29T18:59:01.233Z,59.33
2023-01-29T19:02:02.988Z,76.10
2023-01-29T19:05:04.835Z,88.00
2023-01-29T19:08:06.755Z,102.43
2023-01-29T19:11:09.064Z,81.93
2023-01-29T19:14:10.876Z,97.40
2023-01-29T19:17:12.580Z,70.73
2023-01-29T19:20:14.276Z,79.63
2023-01-29T19:23:15.988Z,95.80
2023-01-29T19:26:18.045Z,80.50
2023-01-29T19:29:20.292Z,72.33
2023-01-29T19:32:22.688Z,75.77
2023-01-29T19:35:24.660Z,66.80
2023-01-29T19:38:26.966Z,71.23
2023-01-29T19:41:29.127Z,80.50
2023-01-29T19:44:31.021Z,70.77
2023-01-29T19:47:33.755Z,74.97
2023-01-29T19:50:35.474Z,99.57
2023-01-29T19:53:37.562Z,101.00
2023-01-29T19:56:39.633Z,92.33
2023-01-29T19:59:41.360Z,95.77
2023-01-29T20:02:42.993Z,82.13
2023-01-29T20:05:44.561Z,81.57
2023-01-29T20:08:46.927Z,102.43
2023-01-29T20:11:48.693Z,79.13
2023-01-29T20:14:52.167Z,81.73
2023-01-29T20:17:56.526Z,75.50
2023-01-29T20:20:59.010Z,80.63
2023-01-29T20:24:00.774Z,69.80
2023-01-29T20:27:03.063Z,61.53
2023-01-29T20:30:05.008Z,67.03
2023-01-29T20:33:07.369Z,72.10
2023-01-29T20:36:10.314Z,68.70
2023-01-29T20:39:13.497Z,68.70
2023-01-29T20:42:15.150Z,70.47
2023-01-29T20:45:16.824Z,67.03
2023-01-29T20:48:18.816Z,72.83
2023-01-29T20:51:20.694Z,46.90
2023-01-29T20:54:22.390Z,30.00
2023-01-29T20:57:24.427Z,34.60
2023-01-29T21:00:26.045Z,32.30
2023-01-29T21:03:28.039Z,27.80
2023-01-29T21:06:29.807Z,29.53
2023-01-29T21:09:31.412Z,28.90
2023-01-29T21:12:33.129Z,26.37
2023-01-29T21:15:34.800Z,23.07
2023-01-29T21:18:39.691Z,23.77
2023-01-29T21:21:41.345Z,26.80
2023-01-29T21:24:43.142Z,23.03
2023-01-29T21:27:45.558Z,23.07
2023-01-29T21:30:47.948Z,23.50
2023-01-29T21:33:49.670Z,22.47
2023-01-29T21:36:51.310Z,20.27
2023-01-29T21:39:52.924Z,20.77
2023-01-29T21:43:12.871Z,21.50
2023-01-29T21:46:15.896Z,21.20
2023-01-29T21:49:17.677Z,21.27
2023-01-29T21:52:19.683Z,23.03
2023-01-29T21:55:21.634Z,20.10
2023-01-29T21:58:24.805Z,22.03
2023-01-29T22:01:37.803Z,21.63
2023-01-29T22:04:40.865Z,20.17
2023-01-29T22:07:42.796Z,20.67
2023-01-29T22:10:44.784Z,17.80
2023-01-29T22:13:47.160Z,18.97
2023-01-29T22:16:48.831Z,19.10
2023-01-29T22:19:50.555Z,16.53
2023-01-29T22:22:52.316Z,16.10
2023-01-29T22:25:54.222Z,14.67
2023-01-29T22:28:56.239Z,15.10
2023-01-29T22:31:58.098Z,13.37
2023-01-29T22:34:59.901Z,15.03
2023-01-29T22:38:01.544Z,14.27
2023-01-29T22:41:03.668Z,14.90
2023-01-29T22:44:05.505Z,13.70
2023-01-29T22:47:07.098Z,17.57
2023-01-29T22:50:09.065Z,15.33
2023-01-29T22:53:10.638Z,15.63
2023-01-29T22:56:12.522Z,12.73
2023-01-29T22:59:14.157Z,14.60
2023-01-29T23:02:15.793Z,14.77
2023-01-29T23:05:18.200Z,14.00
2023-01-29T23:08:19.799Z,14.13
2023-01-29T23:11:23.574Z,14.67
2023-01-29T23:14:25.198Z,16.27
2023-01-29T23:17:26.869Z,14.43
2023-01-29T23:20:28.580Z,14.60
2023-01-29T23:23:30.495Z,14.37
2023-01-29T23:26:50.658Z,15.60
2023-01-29T23:29:52.323Z,14.43
2023-01-29T23:32:53.900Z,13.17
2023-01-29T23:35:55.506Z,13.63
2023-01-29T23:38:57.124Z,12.27
2023-01-29T23:41:58.788Z,13.13
2023-01-29T23:45:00.455Z,11.77
2023-01-29T23:48:02.144Z,12.30
2023-01-29T23:51:03.992Z,12.70
2023-01-29T23:54:05.656Z,12.50
2023-01-29T23:57:07.341Z,12.73
